createdAt,value
2019-03-27T00:00:51.779Z,7.68
2019-03-27T00:03:42.151Z,7.77
2019-03-27T00:06:32.500Z,7.73
2019-03-27T00:09:22.800Z,7.73
2019-03-27T00:12:13.176Z,7.71
2019-03-27T00:14:44.070Z,7.64
2019-03-27T00:17:34.410Z,7.65
2019-03-27T00:20:24.704Z,7.62
2019-03-27T00:23:15.045Z,7.62
2019-03-27T00:26:05.692Z,7.63
2019-03-27T00:28:56.051Z,7.65
2019-03-27T00:31:46.400Z,7.60
2019-03-27T00:34:36.779Z,7.56
2019-03-27T00:40:53.636Z,7.55
2019-03-27T00:43:43.986Z,7.54
2019-03-27T00:46:34.311Z,7.59
2019-03-27T00:49:24.615Z,7.54
2019-03-27T00:52:14.940Z,7.51
2019-03-27T01:02:12.409Z,7.57
2019-03-27T01:05:02.927Z,7.51
2019-03-27T01:07:53.244Z,7.48
2019-03-27T01:10:43.535Z,7.49
2019-03-27T01:13:33.999Z,7.28
2019-03-27T01:16:24.284Z,7.21
2019-03-27T01:19:17.106Z,7.20
2019-03-27T01:22:07.438Z,7.23
2019-03-27T01:24:57.805Z,7.20
2019-03-27T01:27:48.099Z,7.21
2019-03-27T01:30:38.432Z,7.31
2019-03-27T01:33:28.722Z,7.32
2019-03-27T01:36:19.058Z,7.32
2019-03-27T01:39:09.404Z,7.23
2019-03-27T01:41:59.746Z,7.17
2019-03-27T01:44:50.043Z,7.14
2019-03-27T01:47:40.346Z,7.26
2019-03-27T01:50:31.085Z,7.22
2019-03-27T01:53:21.410Z,7.18
2019-03-27T01:56:11.690Z,7.29
2019-03-27T01:59:02.024Z,7.21
2019-03-27T02:01:52.309Z,7.28
2019-03-27T02:04:42.647Z,7.25
2019-03-27T02:07:32.940Z,7.28
2019-03-27T02:10:23.274Z,7.29
2019-03-27T02:13:13.548Z,7.33
2019-03-27T02:16:07.215Z,7.19
2019-03-27T02:18:55.891Z,7.15
2019-03-27T02:21:46.226Z,7.07
2019-03-27T02:24:36.526Z,6.98
2019-03-27T02:27:26.864Z,6.83
2019-03-27T02:33:38.471Z,6.65
2019-03-27T02:36:28.789Z,6.67
2019-03-27T02:38:59.700Z,6.51
2019-03-27T02:41:50.008Z,6.45
2019-03-27T02:44:40.362Z,6.36
2019-03-27T02:47:30.633Z,6.31
2019-03-27T02:53:16.892Z,6.20
2019-03-27T02:56:07.219Z,6.16
2019-03-27T02:58:57.518Z,6.22
2019-03-27T03:01:48.378Z,6.17
2019-03-27T03:04:39.865Z,6.18
2019-03-27T03:07:30.182Z,6.07
2019-03-27T03:13:41.270Z,6.06
2019-03-27T03:16:41.864Z,6.00
2019-03-27T03:19:15.072Z,5.85
2019-03-27T03:22:07.685Z,5.95
2019-03-27T03:24:58.006Z,5.97
2019-03-27T03:27:28.982Z,5.81
2019-03-27T03:30:58.420Z,5.84
2019-03-27T03:33:48.742Z,5.74
2019-03-27T03:36:39.045Z,5.43
2019-03-27T03:39:29.449Z,5.29
2019-03-27T03:42:19.759Z,5.32
2019-03-27T03:44:50.719Z,5.29
2019-03-27T03:47:41.035Z,5.27
2019-03-27T03:50:50.070Z,5.26
2019-03-27T03:53:40.376Z,5.20
2019-03-27T04:03:27.878Z,4.85
2019-03-27T04:06:18.186Z,4.85
2019-03-27T04:09:08.618Z,4.82
2019-03-27T04:11:58.895Z,4.75
2019-03-27T04:14:49.220Z,4.77
2019-03-27T04:17:38.868Z,4.77
2019-03-27T04:20:29.196Z,4.77
2019-03-27T04:23:19.491Z,4.77
2019-03-27T04:26:10.849Z,4.80
2019-03-27T04:29:20.549Z,4.69
2019-03-27T04:32:10.865Z,4.69
2019-03-27T04:35:01.171Z,4.68
2019-03-27T04:37:51.489Z,4.72
2019-03-27T04:41:00.528Z,4.87
2019-03-27T04:47:05.729Z,4.65
2019-03-27T04:50:07.295Z,4.62
2019-03-27T04:52:58.872Z,4.62
2019-03-27T04:55:49.254Z,4.90
2019-03-27T04:58:20.306Z,4.82
2019-03-27T05:01:10.676Z,4.96
2019-03-27T05:06:58.398Z,4.95
2019-03-27T05:09:48.721Z,4.98
2019-03-27T05:12:39.112Z,4.96
2019-03-27T05:15:48.215Z,5.19
2019-03-27T05:18:38.516Z,5.19
2019-03-27T05:21:28.835Z,5.17
2019-03-27T05:24:19.149Z,5.13
2019-03-27T05:27:09.549Z,5.19
2019-03-27T05:29:59.923Z,5.29
2019-03-27T05:32:50.243Z,5.18
2019-03-27T05:35:40.642Z,5.29
2019-03-27T05:38:30.949Z,5.20
2019-03-27T05:41:21.382Z,5.15
2019-03-27T05:44:11.721Z,5.15
2019-03-27T05:47:02.073Z,5.19
2019-03-27T05:49:52.374Z,5.19
2019-03-27T05:52:42.708Z,5.16
2019-03-27T05:55:33.011Z,5.16
2019-03-27T05:58:23.384Z,5.23
2019-03-27T06:01:13.699Z,5.24
2019-03-27T06:04:04.361Z,5.35
2019-03-27T06:06:54.669Z,5.36
2019-03-27T06:09:45.008Z,5.27
2019-03-27T06:12:35.288Z,5.22
2019-03-27T06:15:25.601Z,5.35
2019-03-27T06:18:15.919Z,5.27
2019-03-27T06:21:06.380Z,5.27
2019-03-27T06:23:56.695Z,5.41
2019-03-27T06:26:47.026Z,5.58
2019-03-27T06:29:19.567Z,5.59
2019-03-27T06:32:09.950Z,5.77
2019-03-27T06:35:00.431Z,5.97
2019-03-27T06:37:37.668Z,6.11
2019-03-27T06:40:27.986Z,6.23
2019-03-27T06:43:19.327Z,6.41
2019-03-27T06:46:09.649Z,6.19
2019-03-27T06:48:59.978Z,6.28
2019-03-27T06:51:50.313Z,6.20
2019-03-27T06:54:40.643Z,6.24
2019-03-27T06:57:30.935Z,6.19
2019-03-27T07:01:00.379Z,6.21
2019-03-27T07:03:50.697Z,6.29
2019-03-27T07:06:41.034Z,6.45
2019-03-27T07:09:11.970Z,6.38
2019-03-27T07:12:02.289Z,6.44
2019-03-27T07:14:52.588Z,6.48
2019-03-27T07:17:42.862Z,6.60
2019-03-27T07:20:33.178Z,6.71
2019-03-27T07:23:23.515Z,6.68
2019-03-27T07:26:13.859Z,6.63
2019-03-27T07:29:04.191Z,6.77
2019-03-27T07:31:54.505Z,6.68
2019-03-27T07:34:44.820Z,6.83
2019-03-27T07:37:35.212Z,6.75
2019-03-27T07:40:25.633Z,6.56
2019-03-27T07:43:15.926Z,6.61
2019-03-27T07:45:46.864Z,6.75
2019-03-27T07:48:37.283Z,6.90
2019-03-27T07:51:27.656Z,6.96
2019-03-27T07:54:17.982Z,6.80
2019-03-27T07:57:08.311Z,6.87
2019-03-27T07:59:58.646Z,7.20
2019-03-27T08:02:49.022Z,7.26
2019-03-27T08:05:39.349Z,7.17
2019-03-27T08:08:29.730Z,7.66
2019-03-27T08:11:20.161Z,7.69
2019-03-27T08:14:10.496Z,7.91
2019-03-27T08:17:00.817Z,8.07
2019-03-27T08:19:51.175Z,8.21
2019-03-27T08:22:41.491Z,8.19
2019-03-27T08:25:31.926Z,7.91
2019-03-27T08:28:22.241Z,7.79
2019-03-27T08:31:12.579Z,7.77
2019-03-27T08:34:02.903Z,8.25
2019-03-27T08:36:53.289Z,7.82
2019-03-27T08:39:24.192Z,8.16
2019-03-27T08:42:14.548Z,8.19
2019-03-27T08:45:05.326Z,8.23
2019-03-27T08:47:55.685Z,9.05
2019-03-27T08:50:46.041Z,9.03
2019-03-27T08:53:36.359Z,8.62
2019-03-27T08:56:26.668Z,8.40
2019-03-27T08:59:17.045Z,8.39
2019-03-27T09:02:07.377Z,8.22
2019-03-27T09:04:57.808Z,7.89
2019-03-27T09:07:48.190Z,7.81
2019-03-27T09:10:38.539Z,7.68
2019-03-27T09:13:28.878Z,7.82
2019-03-27T09:16:19.251Z,7.88
2019-03-27T09:19:10.492Z,7.84
2019-03-27T09:22:00.849Z,7.81
2019-03-27T09:24:51.169Z,8.23
2019-03-27T09:27:41.500Z,8.29
2019-03-27T09:30:31.809Z,8.52
2019-03-27T09:33:22.139Z,8.58
2019-03-27T09:36:12.594Z,8.48
2019-03-27T09:39:02.957Z,8.28
2019-03-27T09:41:53.272Z,8.06
2019-03-27T09:44:43.610Z,8.30
2019-03-27T09:47:34.804Z,8.46
2019-03-27T09:50:17.014Z,8.70
2019-03-27T09:53:07.440Z,8.96
2019-03-27T09:55:57.890Z,9.11
2019-03-27T09:58:48.204Z,8.89
2019-03-27T10:01:38.534Z,8.50
2019-03-27T10:04:28.848Z,8.53
2019-03-27T10:07:19.189Z,8.53
2019-03-27T10:10:09.627Z,8.69
2019-03-27T10:12:59.985Z,8.72
2019-03-27T10:15:50.313Z,8.78
2019-03-27T10:18:21.259Z,8.61
2019-03-27T10:21:11.585Z,8.49
2019-03-27T10:24:01.934Z,8.42
2019-03-27T10:26:52.237Z,8.33
2019-03-27T10:29:42.579Z,8.38
2019-03-27T10:32:32.919Z,8.36
2019-03-27T10:35:23.253Z,8.23
2019-03-27T10:38:13.746Z,8.45
2019-03-27T10:40:44.787Z,8.78
2019-03-27T10:43:35.103Z,8.92
2019-03-27T10:46:25.437Z,9.22
2019-03-27T10:48:58.013Z,9.30
2019-03-27T10:51:48.345Z,9.25
2019-03-27T10:54:38.701Z,9.24
2019-03-27T10:57:29.068Z,9.28
2019-03-27T11:00:19.522Z,9.31
2019-03-27T11:03:09.864Z,9.40
2019-03-27T11:06:00.171Z,9.60
2019-03-27T11:08:50.509Z,9.57
2019-03-27T11:11:21.427Z,9.98
2019-03-27T11:14:11.838Z,10.10
2019-03-27T11:17:02.148Z,10.07
2019-03-27T11:19:52.521Z,10.37
2019-03-27T11:22:42.832Z,10.36
2019-03-27T11:25:33.421Z,10.14
2019-03-27T11:28:25.184Z,10.02
2019-03-27T11:31:15.529Z,10.14
2019-03-27T11:34:05.955Z,10.21
2019-03-27T11:36:56.303Z,10.18
2019-03-27T11:39:27.228Z,9.98
2019-03-27T11:42:17.550Z,10.27
2019-03-27T11:45:48.794Z,10.47
2019-03-27T11:48:25.600Z,10.28
2019-03-27T11:51:15.940Z,9.90
2019-03-27T11:54:06.301Z,10.11
2019-03-27T11:56:56.620Z,10.36
2019-03-27T12:00:26.112Z,10.43
2019-03-27T12:03:16.420Z,10.62
2019-03-27T12:06:06.782Z,10.83
2019-03-27T12:08:57.147Z,11.24
2019-03-27T12:11:47.505Z,11.44
2019-03-27T12:14:37.840Z,11.75
2019-03-27T12:17:28.197Z,11.69
2019-03-27T12:20:18.989Z,11.34
2019-03-27T12:23:09.485Z,11.10
2019-03-27T12:25:59.854Z,11.43
2019-03-27T12:28:30.978Z,11.23
2019-03-27T12:31:21.401Z,11.16
2019-03-27T12:34:11.742Z,11.11
2019-03-27T12:37:02.057Z,11.19
2019-03-27T12:39:52.415Z,11.39
2019-03-27T12:42:42.721Z,11.18
2019-03-27T12:45:33.069Z,10.77
2019-03-27T12:48:23.364Z,10.71
2019-03-27T12:51:13.756Z,10.75
2019-03-27T12:54:04.042Z,11.30
2019-03-27T12:56:54.361Z,11.71
2019-03-27T12:59:44.662Z,11.43
2019-03-27T13:02:35.029Z,11.10
2019-03-27T13:05:25.320Z,11.07
2019-03-27T13:08:15.740Z,11.32
2019-03-27T13:11:06.140Z,11.07
2019-03-27T13:13:56.514Z,10.79
2019-03-27T13:16:27.442Z,10.74
2019-03-27T13:19:17.767Z,10.58
2019-03-27T13:22:08.082Z,10.59
2019-03-27T13:24:58.407Z,10.82
2019-03-27T13:27:48.705Z,10.56
2019-03-27T13:30:19.788Z,10.47
2019-03-27T13:33:10.099Z,10.76
2019-03-27T13:36:00.438Z,10.75
2019-03-27T13:38:50.778Z,11.01
2019-03-27T13:41:21.706Z,11.53
2019-03-27T13:44:12.037Z,11.67
2019-03-27T13:47:02.502Z,12.50
2019-03-27T13:49:54.419Z,12.45
2019-03-27T13:52:44.873Z,13.06
2019-03-27T13:55:35.450Z,13.15
2019-03-27T13:58:25.769Z,12.95
2019-03-27T14:01:16.096Z,12.22
2019-03-27T14:04:06.433Z,12.10
2019-03-27T14:06:56.737Z,11.81
2019-03-27T14:09:47.092Z,11.42
2019-03-27T14:12:37.449Z,11.53
2019-03-27T14:15:27.934Z,11.64
2019-03-27T14:18:18.232Z,11.90
2019-03-27T14:21:08.582Z,12.00
2019-03-27T14:23:58.876Z,11.65
2019-03-27T14:26:49.225Z,12.27
2019-03-27T14:29:39.625Z,12.16
2019-03-27T14:32:30.020Z,11.38
2019-03-27T14:35:20.367Z,11.52
2019-03-27T14:38:10.801Z,12.32
2019-03-27T14:41:13.780Z,12.77
2019-03-27T14:43:46.018Z,12.62
2019-03-27T14:46:36.400Z,12.07
2019-03-27T14:49:26.727Z,11.83
2019-03-27T14:52:18.043Z,13.17
2019-03-27T14:54:49.019Z,13.92
2019-03-27T14:57:39.969Z,14.71
2019-03-27T15:00:30.350Z,14.24
2019-03-27T15:03:20.692Z,13.89
2019-03-27T15:06:11.053Z,14.37
2019-03-27T15:08:42.015Z,15.58
2019-03-27T15:11:32.493Z,15.30
2019-03-27T15:14:22.885Z,13.72
2019-03-27T15:17:16.264Z,12.98
2019-03-27T15:19:48.251Z,12.84
2019-03-27T15:22:38.671Z,13.93
2019-03-27T15:25:29.010Z,14.64
2019-03-27T15:28:19.316Z,13.06
2019-03-27T15:31:19.938Z,14.62
2019-03-27T15:34:03.372Z,14.49
2019-03-27T15:36:54.356Z,13.46
2019-03-27T15:39:44.620Z,13.94
2019-03-27T15:42:34.941Z,15.05
2019-03-27T15:45:25.284Z,14.78
2019-03-27T15:48:16.552Z,14.63
2019-03-27T15:51:06.951Z,15.60
2019-03-27T15:53:57.346Z,15.22
2019-03-27T15:56:47.699Z,15.65
2019-03-27T15:59:38.047Z,15.82
2019-03-27T16:02:28.415Z,15.38
2019-03-27T16:05:18.769Z,16.15
2019-03-27T16:08:09.264Z,16.27
2019-03-27T16:10:59.570Z,15.95
2019-03-27T16:13:49.952Z,13.69
2019-03-27T16:16:40.279Z,12.55
2019-03-27T16:19:30.633Z,11.74
2019-03-27T16:22:20.964Z,11.53
2019-03-27T16:25:11.427Z,11.04
2019-03-27T16:28:01.761Z,10.88
2019-03-27T16:30:32.728Z,11.13
2019-03-27T16:33:23.039Z,10.70
2019-03-27T16:36:13.388Z,10.61
2019-03-27T16:42:00.975Z,10.79
2019-03-27T16:44:51.325Z,11.26
2019-03-27T16:47:41.655Z,11.39
2019-03-27T16:50:32.000Z,10.83
2019-03-27T16:53:22.332Z,10.14
2019-03-27T16:56:12.666Z,9.76
2019-03-27T16:59:03.961Z,9.41
2019-03-27T17:01:54.262Z,9.23
2019-03-27T17:04:44.605Z,9.07
2019-03-27T17:07:34.973Z,8.92
2019-03-27T17:10:25.295Z,8.88
2019-03-27T17:13:15.590Z,8.72
2019-03-27T17:16:05.918Z,8.71
2019-03-27T17:18:56.257Z,8.63
2019-03-27T17:21:46.595Z,8.54
2019-03-27T17:24:17.584Z,8.44
2019-03-27T17:26:48.642Z,8.30
2019-03-27T17:29:21.232Z,8.12
2019-03-27T17:32:11.562Z,8.05
2019-03-27T17:35:01.904Z,8.01
2019-03-27T17:37:52.258Z,7.96
2019-03-27T17:40:42.555Z,7.92
2019-03-27T17:43:32.967Z,7.94
2019-03-27T17:46:23.300Z,7.98
2019-03-27T17:49:13.669Z,7.79
2019-03-27T17:52:04.102Z,7.78
2019-03-27T17:54:54.468Z,7.80
2019-03-27T17:57:45.158Z,7.75
2019-03-27T18:03:53.344Z,7.71
2019-03-27T18:06:43.688Z,7.57
2019-03-27T18:09:34.098Z,7.49
2019-03-27T18:12:24.449Z,7.58
2019-03-27T18:15:14.819Z,7.72
2019-03-27T18:17:45.792Z,7.66
2019-03-27T18:20:36.259Z,7.67
2019-03-27T18:23:26.565Z,7.52
2019-03-27T18:26:16.925Z,7.41
2019-03-27T18:29:07.262Z,7.40
2019-03-27T18:31:57.635Z,7.34
2019-03-27T18:34:48.035Z,7.27
2019-03-27T18:37:38.567Z,7.19
2019-03-27T18:40:29.061Z,7.18
2019-03-27T18:43:19.402Z,7.11
2019-03-27T18:46:12.065Z,7.05
2019-03-27T18:49:02.425Z,7.07
2019-03-27T18:51:52.771Z,6.99
2019-03-27T18:54:43.103Z,6.99
2019-03-27T18:57:33.466Z,7.02
2019-03-27T19:00:23.948Z,6.91
2019-03-27T19:03:14.363Z,6.92
2019-03-27T19:06:04.728Z,6.93
2019-03-27T19:08:55.050Z,6.85
2019-03-27T19:11:45.411Z,6.86
2019-03-27T19:14:35.731Z,6.83
2019-03-27T19:17:26.095Z,6.80
2019-03-27T19:20:16.532Z,6.75
2019-03-27T19:23:06.888Z,6.76
2019-03-27T19:25:57.216Z,6.74
2019-03-27T19:28:28.133Z,6.66
2019-03-27T19:30:59.150Z,6.69
2019-03-27T19:33:49.486Z,6.73
2019-03-27T19:36:39.801Z,6.72
2019-03-27T19:39:30.160Z,6.67
2019-03-27T19:42:20.534Z,6.61
2019-03-27T19:45:10.916Z,6.60
2019-03-27T19:48:01.322Z,6.59
2019-03-27T19:50:51.655Z,6.59
2019-03-27T19:53:42.010Z,6.61
2019-03-27T19:56:32.326Z,6.61
2019-03-27T19:59:22.711Z,6.54
2019-03-27T20:02:13.180Z,6.58
2019-03-27T20:05:03.566Z,6.63
2019-03-27T20:07:53.863Z,6.63
2019-03-27T20:10:44.231Z,6.56
2019-03-27T20:13:34.575Z,6.56
2019-03-27T20:16:24.931Z,6.56
2019-03-27T20:19:15.263Z,6.48
2019-03-27T20:22:05.628Z,6.48
2019-03-27T20:24:55.977Z,6.43
2019-03-27T20:27:46.381Z,6.37
2019-03-27T20:30:36.736Z,6.30
2019-03-27T20:33:27.065Z,6.38
2019-03-27T20:36:17.424Z,6.44
2019-03-27T20:39:09.477Z,6.40
2019-03-27T20:41:40.551Z,6.45
2019-03-27T20:44:30.908Z,6.40
2019-03-27T20:47:21.240Z,6.55
2019-03-27T20:50:11.712Z,6.45
2019-03-27T20:53:02.075Z,6.61
2019-03-27T20:55:52.457Z,6.63
2019-03-27T20:58:42.810Z,6.65
2019-03-27T21:01:33.224Z,6.57
2019-03-27T21:04:23.592Z,6.40
2019-03-27T21:07:13.942Z,6.42
2019-03-27T21:09:53.328Z,6.44
2019-03-27T21:12:35.055Z,6.39
2019-03-27T21:15:25.380Z,6.40
2019-03-27T21:18:15.748Z,6.46
2019-03-27T21:21:06.083Z,6.50
2019-03-27T21:23:56.467Z,6.56
2019-03-27T21:26:46.815Z,6.58
2019-03-27T21:29:19.407Z,6.52
2019-03-27T21:32:09.753Z,6.48
2019-03-27T21:35:00.139Z,6.53
2019-03-27T21:37:50.528Z,6.51
2019-03-27T21:40:21.620Z,6.52
2019-03-27T21:43:11.996Z,6.51
2019-03-27T21:46:02.346Z,6.48
2019-03-27T21:48:52.663Z,6.48
2019-03-27T21:51:43.010Z,6.50
2019-03-27T21:54:33.358Z,6.37
2019-03-27T21:57:23.744Z,6.43
2019-03-27T22:02:55.968Z,6.43
2019-03-27T22:05:46.300Z,6.42
2019-03-27T22:08:36.663Z,6.39
2019-03-27T22:11:26.974Z,6.43
2019-03-27T22:14:17.314Z,6.49
2019-03-27T22:17:07.742Z,6.37
2019-03-27T22:19:58.112Z,6.32
2019-03-27T22:22:48.538Z,6.35
2019-03-27T22:25:39.014Z,6.28
2019-03-27T22:28:10.083Z,6.32
2019-03-27T22:31:00.645Z,6.38
2019-03-27T22:33:51.002Z,6.41
2019-03-27T22:36:22.191Z,6.30
2019-03-27T22:39:14.751Z,6.29
2019-03-27T22:42:05.121Z,6.24
2019-03-27T22:44:36.161Z,6.27
2019-03-27T22:47:26.521Z,6.32
2019-03-27T22:50:16.850Z,6.39
2019-03-27T22:53:07.305Z,6.34
2019-03-27T22:55:57.589Z,6.30
2019-03-27T22:58:47.940Z,6.43
2019-03-27T23:05:07.027Z,6.47
2019-03-27T23:07:39.753Z,6.38
2019-03-27T23:10:30.119Z,6.56
2019-03-27T23:13:01.046Z,6.53
2019-03-27T23:15:51.361Z,6.63
2019-03-27T23:18:41.659Z,6.62
2019-03-27T23:21:31.994Z,6.71
2019-03-27T23:24:22.268Z,6.66
2019-03-27T23:27:12.609Z,6.65
2019-03-27T23:30:02.916Z,6.65
2019-03-27T23:32:53.249Z,6.55
2019-03-27T23:35:44.108Z,6.72
2019-03-27T23:38:26.977Z,6.77
2019-03-27T23:41:17.314Z,6.67
2019-03-27T23:44:07.741Z,6.83
2019-03-27T23:46:58.036Z,6.89
2019-03-27T23:49:48.365Z,7.01
2019-03-27T23:52:38.847Z,7.04
2019-03-27T23:55:29.194Z,6.97
2019-03-27T23:58:19.509Z,6.99
